createdAt,value
2023-02-19T00:01:26.623Z,-8.36
2023-02-19T00:03:56.314Z,-8.36
2023-02-19T00:06:24.827Z,-8.36
2023-02-19T00:08:52.125Z,-8.38
2023-02-19T00:11:21.169Z,-8.44
2023-02-19T00:13:52.909Z,-8.37
2023-02-19T00:16:22.756Z,-8.41
2023-02-19T00:18:50.522Z,-8.43
2023-02-19T00:21:18.409Z,-8.42
2023-02-19T00:23:49.840Z,-8.43
2023-02-19T00:26:18.880Z,-8.45
2023-02-19T00:28:51.155Z,-8.42
2023-02-19T00:31:21.550Z,-8.55
2023-02-19T00:33:51.304Z,-8.45
2023-02-19T00:36:19.258Z,-8.46
2023-02-19T00:38:46.923Z,-8.47
2023-02-19T00:41:21.419Z,-8.45
2023-02-19T00:43:52.112Z,-8.45
2023-02-19T00:46:22.463Z,-8.44
2023-02-19T00:48:50.602Z,-8.40
2023-02-19T00:51:17.833Z,-8.40
2023-02-19T00:53:45.393Z,-8.43
2023-02-19T00:56:13.242Z,-8.42
2023-02-19T00:58:40.736Z,-8.40
2023-02-19T01:01:11.207Z,-8.41
2023-02-19T01:03:39.426Z,-8.41
2023-02-19T01:06:08.505Z,-8.42
2023-02-19T01:08:36.123Z,-8.45
2023-02-19T01:11:05.703Z,-8.43
2023-02-19T01:13:34.036Z,-8.44
2023-02-19T01:16:06.160Z,-8.40
2023-02-19T01:18:35.838Z,-8.39
2023-02-19T01:21:07.399Z,-8.40
2023-02-19T01:23:35.490Z,-8.41
2023-02-19T01:26:05.886Z,-8.47
2023-02-19T01:28:33.187Z,-8.47
2023-02-19T01:31:02.685Z,-8.45
2023-02-19T01:33:30.504Z,-8.42
2023-02-19T01:35:59.553Z,-8.53
2023-02-19T01:38:26.877Z,-8.52
2023-02-19T01:40:57.853Z,-8.52
2023-02-19T01:43:25.462Z,-8.47
2023-02-19T01:45:53.072Z,-8.51
2023-02-19T01:48:23.846Z,-8.52
2023-02-19T01:50:54.790Z,-8.49
2023-02-19T01:53:28.081Z,-8.51
2023-02-19T01:55:56.805Z,-8.45
2023-02-19T01:58:26.135Z,-8.50
2023-02-19T02:00:53.425Z,-8.52
2023-02-19T02:03:21.359Z,-8.48
2023-02-19T02:05:56.424Z,-8.51
2023-02-19T02:08:45.089Z,-8.54
2023-02-19T02:11:12.580Z,-8.59
2023-02-19T02:13:40.899Z,-8.61
2023-02-19T02:16:23.079Z,-8.63
2023-02-19T02:18:58.696Z,-8.66
2023-02-19T02:21:59.282Z,-8.63
2023-02-19T02:24:56.744Z,-8.63
2023-02-19T02:28:01.035Z,-8.57
2023-02-19T02:30:39.694Z,-8.59
2023-02-19T02:33:17.099Z,-8.62
2023-02-19T02:35:48.998Z,-8.66
2023-02-19T02:38:20.366Z,-8.62
2023-02-19T02:40:48.160Z,-8.62
2023-02-19T02:43:16.593Z,-8.60
2023-02-19T02:45:45.454Z,-8.57
2023-02-19T02:48:46.107Z,-8.60
2023-02-19T02:51:19.637Z,-8.54
2023-02-19T02:54:27.050Z,-8.58
2023-02-19T02:56:57.110Z,-8.67
2023-02-19T02:59:29.005Z,-8.66
2023-02-19T03:02:14.543Z,-8.62
2023-02-19T03:05:09.654Z,-8.57
2023-02-19T03:07:45.578Z,-8.54
2023-02-19T03:10:17.483Z,-8.61
2023-02-19T03:13:04.960Z,-8.55
2023-02-19T03:15:58.498Z,-8.59
2023-02-19T03:18:51.027Z,-8.58
2023-02-19T03:21:22.748Z,-8.60
2023-02-19T03:24:09.862Z,-8.57
2023-02-19T03:26:39.332Z,-8.59
2023-02-19T03:29:23.406Z,-8.58
2023-02-19T03:31:57.073Z,-8.59
2023-02-19T03:34:36.359Z,-8.62
2023-02-19T03:37:10.756Z,-8.63
2023-02-19T03:39:44.549Z,-8.58
2023-02-19T03:42:27.302Z,-8.57
2023-02-19T03:45:07.912Z,-8.60
2023-02-19T03:47:44.071Z,-8.64
2023-02-19T03:50:18.996Z,-8.62
2023-02-19T03:52:56.932Z,-8.59
2023-02-19T03:55:31.655Z,-8.56
2023-02-19T03:58:09.565Z,-8.54
2023-02-19T04:00:40.792Z,-8.60
2023-02-19T04:03:13.233Z,-8.66
2023-02-19T04:05:45.735Z,-8.65
2023-02-19T04:08:16.650Z,-8.58
2023-02-19T04:10:50.636Z,-8.58
2023-02-19T04:13:22.517Z,-8.58
2023-02-19T04:15:52.051Z,-8.57
2023-02-19T04:18:23.054Z,-8.59
2023-02-19T04:20:52.726Z,-8.58
2023-02-19T04:23:23.418Z,-8.54
2023-02-19T04:25:55.192Z,-8.57
2023-02-19T04:28:22.536Z,-8.59
2023-02-19T04:30:49.850Z,-8.57
2023-02-19T04:33:17.280Z,-8.58
2023-02-19T04:35:44.495Z,-8.62
2023-02-19T04:38:14.475Z,-8.61
2023-02-19T04:40:41.773Z,-8.63
2023-02-19T04:43:09.314Z,-8.59
2023-02-19T04:45:37.884Z,-8.59
2023-02-19T04:48:05.436Z,-8.60
2023-02-19T04:50:32.651Z,-8.63
2023-02-19T04:52:59.859Z,-8.64
2023-02-19T04:55:28.431Z,-8.66
2023-02-19T04:57:55.789Z,-8.64
2023-02-19T05:00:23.013Z,-8.64
2023-02-19T05:02:50.382Z,-8.55
2023-02-19T05:05:17.866Z,-8.64
2023-02-19T05:07:45.121Z,-8.64
2023-02-19T05:10:12.651Z,-8.65
2023-02-19T05:12:41.521Z,-8.59
2023-02-19T05:15:08.791Z,-8.64
2023-02-19T05:17:36.363Z,-8.63
2023-02-19T05:20:04.504Z,-8.62
2023-02-19T05:22:32.126Z,-8.57
2023-02-19T05:24:59.624Z,-8.58
2023-02-19T05:27:26.869Z,-8.57
2023-02-19T05:29:55.849Z,-8.53
2023-02-19T05:32:23.052Z,-8.53
2023-02-19T05:34:51.697Z,-8.60
2023-02-19T05:37:18.863Z,-8.62
2023-02-19T05:39:46.230Z,-8.57
2023-02-19T05:42:14.407Z,-8.57
2023-02-19T05:44:41.763Z,-8.59
2023-02-19T05:47:10.602Z,-8.58
2023-02-19T05:49:38.054Z,-8.54
2023-02-19T05:52:05.596Z,-8.56
2023-02-19T05:54:32.896Z,-8.54
2023-02-19T05:57:00.460Z,-8.52
2023-02-19T05:59:27.828Z,-8.55
2023-02-19T06:01:55.398Z,-8.53
2023-02-19T06:04:24.203Z,-8.50
2023-02-19T06:06:51.509Z,-8.53
2023-02-19T06:09:18.770Z,-8.52
2023-02-19T06:11:46.401Z,-8.53
2023-02-19T06:14:14.588Z,-8.49
2023-02-19T06:16:42.049Z,-8.45
2023-02-19T06:19:09.955Z,-8.41
2023-02-19T06:21:38.672Z,-8.39
2023-02-19T06:24:07.861Z,-8.39
2023-02-19T06:26:35.704Z,-8.44
2023-02-19T06:29:03.264Z,-8.38
2023-02-19T06:31:30.682Z,-8.38
2023-02-19T06:33:57.995Z,-8.36
2023-02-19T06:36:25.439Z,-8.33
2023-02-19T06:38:54.195Z,-8.37
2023-02-19T06:41:21.514Z,-8.36
2023-02-19T06:43:48.870Z,-8.32
2023-02-19T06:46:16.250Z,-8.22
2023-02-19T06:48:45.728Z,-8.18
2023-02-19T06:51:15.403Z,-8.18
2023-02-19T06:53:42.637Z,-8.14
2023-02-19T06:56:25.603Z,-8.14
2023-02-19T06:58:53.551Z,-8.06
2023-02-19T07:01:21.013Z,-8.05
2023-02-19T07:03:48.323Z,-8.11
2023-02-19T07:06:15.793Z,-8.16
2023-02-19T07:08:43.184Z,-8.18
2023-02-19T07:11:10.605Z,-8.14
2023-02-19T07:13:39.450Z,-8.16
2023-02-19T07:16:09.049Z,-8.14
2023-02-19T07:18:36.384Z,-8.17
2023-02-19T07:21:04.521Z,-8.18
2023-02-19T07:23:31.976Z,-8.18
2023-02-19T07:25:59.920Z,-8.12
2023-02-19T07:28:27.753Z,-8.10
2023-02-19T07:31:01.214Z,-8.09
2023-02-19T07:33:28.857Z,-8.02
2023-02-19T07:35:56.113Z,-8.05
2023-02-19T07:38:25.120Z,-8.06
2023-02-19T07:40:52.729Z,-8.09
2023-02-19T07:43:20.318Z,-8.09
2023-02-19T07:45:47.757Z,-8.10
2023-02-19T07:48:16.784Z,-8.07
2023-02-19T07:50:51.300Z,-8.05
2023-02-19T07:53:18.587Z,-8.06
2023-02-19T07:55:45.901Z,-8.08
2023-02-19T07:58:13.529Z,-8.01
2023-02-19T08:00:41.030Z,-7.95
2023-02-19T08:03:08.466Z,-7.97
2023-02-19T08:05:41.370Z,-7.87
2023-02-19T08:08:10.078Z,-7.91
2023-02-19T08:10:56.022Z,-7.83
2023-02-19T08:13:25.363Z,-7.81
2023-02-19T08:15:56.283Z,-7.75
2023-02-19T08:18:27.249Z,-7.73
2023-02-19T08:20:56.821Z,-7.71
2023-02-19T08:23:24.580Z,-7.70
2023-02-19T08:25:53.049Z,-7.73
2023-02-19T08:28:20.466Z,-7.71
2023-02-19T08:30:48.649Z,-7.70
2023-02-19T08:33:18.177Z,-7.69
2023-02-19T08:35:46.005Z,-7.73
2023-02-19T08:38:17.775Z,-7.76
2023-02-19T08:40:45.206Z,-7.72
2023-02-19T08:43:14.641Z,-7.77
2023-02-19T08:45:44.264Z,-7.81
2023-02-19T08:48:12.566Z,-7.81
2023-02-19T08:50:40.455Z,-7.72
2023-02-19T08:53:07.936Z,-7.73
2023-02-19T08:55:37.661Z,-7.71
2023-02-19T08:58:05.008Z,-7.72
2023-02-19T09:00:32.500Z,-7.67
2023-02-19T09:02:59.806Z,-7.62
2023-02-19T09:05:27.065Z,-7.54
2023-02-19T09:07:54.466Z,-7.53
2023-02-19T09:10:21.772Z,-7.53
2023-02-19T09:12:50.371Z,-7.58
2023-02-19T09:15:18.286Z,-7.54
2023-02-19T09:17:45.470Z,-7.54
2023-02-19T09:20:12.914Z,-7.53
2023-02-19T09:22:40.414Z,-7.52
2023-02-19T09:25:08.010Z,-7.48
2023-02-19T09:27:35.311Z,-7.45
2023-02-19T09:30:04.417Z,-7.56
2023-02-19T09:32:32.158Z,-7.50
2023-02-19T09:34:59.622Z,-7.50
2023-02-19T09:37:27.861Z,-7.48
2023-02-19T09:39:55.483Z,-7.48
2023-02-19T09:42:26.349Z,-7.49
2023-02-19T09:44:56.491Z,-7.42
2023-02-19T09:47:27.952Z,-7.36
2023-02-19T09:49:57.422Z,-7.31
2023-02-19T09:52:33.030Z,-7.33
2023-02-19T09:55:09.641Z,-7.39
2023-02-19T09:57:37.264Z,-7.26
2023-02-19T10:00:10.390Z,-7.22
2023-02-19T10:02:39.280Z,-7.17
2023-02-19T10:05:13.221Z,-7.18
2023-02-19T10:07:44.540Z,-7.13
2023-02-19T10:10:25.045Z,-7.07
2023-02-19T10:12:56.326Z,-7.03
2023-02-19T10:15:29.831Z,-7.02
2023-02-19T10:17:58.815Z,-7.09
2023-02-19T10:20:28.069Z,-7.14
2023-02-19T10:23:00.542Z,-7.25
2023-02-19T10:25:28.078Z,-7.22
2023-02-19T10:27:57.718Z,-7.12
2023-02-19T10:30:30.689Z,-7.11
2023-02-19T10:33:09.140Z,-7.00
2023-02-19T10:35:39.187Z,-7.00
2023-02-19T10:38:09.972Z,-6.93
2023-02-19T10:40:44.442Z,-6.93
2023-02-19T10:43:23.804Z,-6.83
2023-02-19T10:45:53.105Z,-6.78
2023-02-19T10:48:25.496Z,-6.74
2023-02-19T10:51:00.129Z,-6.70
2023-02-19T10:53:46.859Z,-6.71
2023-02-19T10:56:16.002Z,-6.77
2023-02-19T10:58:45.067Z,-6.62
2023-02-19T11:01:21.108Z,-6.64
2023-02-19T11:03:50.714Z,-6.66
2023-02-19T11:06:21.571Z,-6.54
2023-02-19T11:08:57.377Z,-6.44
2023-02-19T11:11:32.961Z,-6.38
2023-02-19T11:14:03.866Z,-6.38
2023-02-19T11:16:41.489Z,-6.41
2023-02-19T11:19:24.646Z,-6.56
2023-02-19T11:21:52.515Z,-6.64
2023-02-19T11:24:26.379Z,-6.71
2023-02-19T11:26:54.543Z,-6.68
2023-02-19T11:29:24.597Z,-6.61
2023-02-19T11:31:53.382Z,-6.63
2023-02-19T11:34:30.206Z,-6.55
2023-02-19T11:37:13.387Z,-6.47
2023-02-19T11:39:42.747Z,-6.38
2023-02-19T11:42:30.514Z,-6.26
2023-02-19T11:45:13.482Z,-6.18
2023-02-19T11:48:04.333Z,-6.12
2023-02-19T11:50:46.526Z,-6.24
2023-02-19T11:53:21.144Z,-6.20
2023-02-19T11:55:58.142Z,-6.27
2023-02-19T11:58:55.586Z,-6.30
2023-02-19T12:01:35.445Z,-6.32
2023-02-19T12:04:27.145Z,-6.38
2023-02-19T12:07:07.924Z,-6.39
2023-02-19T12:09:47.973Z,-6.43
2023-02-19T12:12:30.064Z,-6.51
2023-02-19T12:15:09.443Z,-6.51
2023-02-19T12:17:57.255Z,-6.53
2023-02-19T12:20:31.997Z,-6.53
2023-02-19T12:23:18.147Z,-6.56
2023-02-19T12:25:55.528Z,-6.54
2023-02-19T12:28:51.847Z,-6.48
2023-02-19T12:31:52.852Z,-6.44
2023-02-19T12:34:41.197Z,-6.43
2023-02-19T12:37:21.358Z,-6.59
2023-02-19T12:40:02.009Z,-6.60
2023-02-19T12:42:51.089Z,-6.54
2023-02-19T12:45:24.355Z,-6.50
2023-02-19T12:48:00.484Z,-6.56
2023-02-19T12:50:29.139Z,-6.57
2023-02-19T12:53:00.038Z,-6.60
2023-02-19T12:55:31.137Z,-6.61
2023-02-19T12:58:02.746Z,-6.59
2023-02-19T13:00:35.738Z,-6.64
2023-02-19T13:03:10.615Z,-6.71
2023-02-19T13:05:46.792Z,-6.76
2023-02-19T13:08:19.161Z,-6.79
2023-02-19T13:10:55.308Z,-6.81
2023-02-19T13:13:30.341Z,-6.89
2023-02-19T13:16:04.336Z,-6.91
2023-02-19T13:18:37.236Z,-6.91
2023-02-19T13:21:06.557Z,-6.95
2023-02-19T13:23:55.439Z,-6.95
2023-02-19T13:26:39.268Z,-6.95
2023-02-19T13:29:21.068Z,-6.90
2023-02-19T13:32:20.976Z,-6.83
2023-02-19T13:35:03.527Z,-6.92
2023-02-19T13:37:34.475Z,-6.82
2023-02-19T13:40:06.759Z,-6.80
2023-02-19T13:42:36.995Z,-6.83
2023-02-19T13:45:06.566Z,-6.89
2023-02-19T13:47:51.937Z,-6.81
2023-02-19T13:50:23.074Z,-6.81
2023-02-19T13:52:50.571Z,-6.80
2023-02-19T13:55:52.702Z,-6.81
2023-02-19T13:58:52.963Z,-6.89
2023-02-19T14:01:40.622Z,-6.91
2023-02-19T14:04:17.312Z,-6.94
2023-02-19T14:07:19.834Z,-6.96
2023-02-19T14:09:47.647Z,-6.97
2023-02-19T14:12:19.820Z,-6.96
2023-02-19T14:14:49.224Z,-6.90
2023-02-19T14:17:28.535Z,-6.86
2023-02-19T14:20:00.622Z,-6.83
2023-02-19T14:23:09.919Z,-6.82
2023-02-19T14:25:53.366Z,-6.86
2023-02-19T14:28:30.432Z,-6.88
2023-02-19T14:31:02.895Z,-6.92
2023-02-19T14:33:33.129Z,-6.94
2023-02-19T14:36:03.721Z,-6.93
2023-02-19T14:38:37.184Z,-6.95
2023-02-19T14:41:06.491Z,-6.96
2023-02-19T14:43:35.709Z,-6.96
2023-02-19T14:46:10.027Z,-7.02
2023-02-19T14:48:43.602Z,-7.04
2023-02-19T14:51:16.968Z,-7.06
2023-02-19T14:53:45.757Z,-7.09
2023-02-19T14:56:21.564Z,-7.11
2023-02-19T14:59:07.109Z,-7.07
2023-02-19T15:01:35.870Z,-7.07
2023-02-19T15:04:03.765Z,-7.10
2023-02-19T15:06:32.876Z,-7.14
2023-02-19T15:09:04.166Z,-7.16
2023-02-19T15:11:33.192Z,-7.20
2023-02-19T15:14:04.047Z,-7.19
2023-02-19T15:16:34.367Z,-7.15
2023-02-19T15:19:06.493Z,-7.23
2023-02-19T15:21:38.085Z,-7.13
2023-02-19T15:24:07.073Z,-7.16
2023-02-19T15:26:36.506Z,-7.14
2023-02-19T15:29:10.738Z,-7.09
2023-02-19T15:31:45.371Z,-7.08
2023-02-19T15:34:18.939Z,-7.02
2023-02-19T15:36:47.039Z,-7.09
2023-02-19T15:39:20.907Z,-7.08
2023-02-19T15:41:53.771Z,-7.08
2023-02-19T15:44:32.037Z,-7.18
2023-02-19T15:47:04.953Z,-7.16
2023-02-19T15:49:40.333Z,-7.20
2023-02-19T15:52:11.712Z,-7.20
2023-02-19T15:54:51.426Z,-7.15
2023-02-19T15:57:23.201Z,-7.24
2023-02-19T15:59:54.917Z,-7.17
2023-02-19T16:02:22.428Z,-7.18
2023-02-19T16:04:51.166Z,-7.14
2023-02-19T16:07:26.703Z,-7.17
2023-02-19T16:10:18.140Z,-7.17
2023-02-19T16:12:55.380Z,-7.16
2023-02-19T16:15:22.706Z,-7.15
2023-02-19T16:17:50.533Z,-7.15
2023-02-19T16:20:24.190Z,-7.16
2023-02-19T16:22:56.912Z,-7.17
2023-02-19T16:25:28.840Z,-7.19
2023-02-19T16:27:56.348Z,-7.23
2023-02-19T16:30:28.573Z,-7.21
2023-02-19T16:33:22.079Z,-7.21
2023-02-19T16:35:52.462Z,-7.23
2023-02-19T16:38:21.631Z,-7.27
2023-02-19T16:41:11.214Z,-7.39
2023-02-19T16:43:40.683Z,-7.38
2023-02-19T16:46:12.206Z,-7.30
2023-02-19T16:48:39.830Z,-7.25
2023-02-19T16:51:15.219Z,-7.24
2023-02-19T16:53:42.406Z,-7.23
2023-02-19T16:56:15.778Z,-7.22
2023-02-19T16:58:42.983Z,-7.19
2023-02-19T17:01:10.736Z,-7.20
2023-02-19T17:03:39.641Z,-7.20
2023-02-19T17:06:08.804Z,-7.25
2023-02-19T17:08:38.727Z,-7.30
2023-02-19T17:11:07.865Z,-7.25
2023-02-19T17:13:35.179Z,-7.24
2023-02-19T17:16:02.727Z,-7.22
2023-02-19T17:18:30.364Z,-7.19
2023-02-19T17:21:02.353Z,-7.17
2023-02-19T17:23:30.949Z,-7.18
2023-02-19T17:25:58.190Z,-7.19
2023-02-19T17:28:26.071Z,-7.19
2023-02-19T17:30:54.121Z,-7.20
2023-02-19T17:33:21.337Z,-7.18
2023-02-19T17:35:48.982Z,-7.20
2023-02-19T17:38:16.283Z,-7.21
2023-02-19T17:40:45.417Z,-7.26
2023-02-19T17:43:12.767Z,-7.26
2023-02-19T17:45:39.960Z,-7.24
2023-02-19T17:48:09.515Z,-7.21
2023-02-19T17:50:36.772Z,-7.20
2023-02-19T17:53:04.408Z,-7.20
2023-02-19T17:55:34.463Z,-7.21
2023-02-19T17:58:03.193Z,-7.22
2023-02-19T18:00:32.286Z,-7.24
2023-02-19T18:02:59.556Z,-7.21
2023-02-19T18:05:27.116Z,-7.20
2023-02-19T18:07:54.537Z,-7.26
2023-02-19T18:10:23.704Z,-7.21
2023-02-19T18:12:51.425Z,-7.20
2023-02-19T18:15:22.588Z,-7.29
2023-02-19T18:17:50.250Z,-7.19
2023-02-19T18:20:19.568Z,-7.23
2023-02-19T18:22:46.828Z,-7.26
2023-02-19T18:25:15.319Z,-7.22
2023-02-19T18:27:42.559Z,-7.23
2023-02-19T18:30:11.136Z,-7.25
2023-02-19T18:32:40.028Z,-7.22
2023-02-19T18:35:08.203Z,-7.26
2023-02-19T18:37:35.669Z,-7.24
2023-02-19T18:40:05.464Z,-7.25
2023-02-19T18:42:33.360Z,-7.20
2023-02-19T18:45:00.642Z,-7.22
2023-02-19T18:47:28.804Z,-7.23
2023-02-19T18:49:59.413Z,-7.26
2023-02-19T18:52:28.322Z,-7.26
2023-02-19T18:54:57.513Z,-7.24
2023-02-19T18:57:26.848Z,-7.23
2023-02-19T18:59:54.161Z,-7.23
2023-02-19T19:02:21.875Z,-7.21
2023-02-19T19:04:51.367Z,-7.21
2023-02-19T19:07:20.902Z,-7.25
2023-02-19T19:09:48.711Z,-7.19
2023-02-19T19:12:16.933Z,-7.16
2023-02-19T19:14:45.220Z,-7.17
2023-02-19T19:17:12.703Z,-7.16
2023-02-19T19:19:41.397Z,-7.17
2023-02-19T19:22:08.912Z,-7.18
2023-02-19T19:24:38.173Z,-7.20
2023-02-19T19:27:05.867Z,-7.21
2023-02-19T19:29:33.537Z,-7.20
2023-02-19T19:32:00.721Z,-7.20
2023-02-19T19:34:28.103Z,-7.17
2023-02-19T19:36:56.646Z,-7.18
2023-02-19T19:39:24.188Z,-7.20
2023-02-19T19:41:55.524Z,-7.19
2023-02-19T19:44:22.900Z,-7.16
2023-02-19T19:46:50.919Z,-7.14
2023-02-19T19:49:19.829Z,-7.12
2023-02-19T19:51:49.629Z,-7.10
2023-02-19T19:54:17.023Z,-7.13
2023-02-19T19:56:46.747Z,-7.17
2023-02-19T19:59:17.253Z,-7.12
2023-02-19T20:01:48.860Z,-7.09
2023-02-19T20:04:16.579Z,-7.08
2023-02-19T20:06:43.771Z,-7.06
2023-02-19T20:09:11.772Z,-7.06
2023-02-19T20:11:44.637Z,-7.04
2023-02-19T20:14:12.199Z,-7.01
2023-02-19T20:16:42.187Z,-6.96
2023-02-19T20:19:10.900Z,-6.94
2023-02-19T20:21:38.317Z,-6.96
2023-02-19T20:24:06.345Z,-6.96
2023-02-19T20:26:33.720Z,-7.00
2023-02-19T20:29:01.144Z,-6.96
2023-02-19T20:31:29.003Z,-6.96
2023-02-19T20:33:57.624Z,-6.95
2023-02-19T20:36:28.523Z,-6.95
2023-02-19T20:38:56.226Z,-6.95
2023-02-19T20:41:23.620Z,-6.95
2023-02-19T20:43:50.889Z,-6.95
2023-02-19T20:46:18.475Z,-6.93
2023-02-19T20:48:46.140Z,-6.91
2023-02-19T20:51:14.877Z,-6.90
2023-02-19T20:53:42.610Z,-6.91
2023-02-19T20:56:11.565Z,-6.91
2023-02-19T20:58:40.842Z,-6.92
2023-02-19T21:01:08.492Z,-6.96
2023-02-19T21:03:35.900Z,-7.00
2023-02-19T21:06:03.350Z,-6.99
2023-02-19T21:08:32.028Z,-6.98
2023-02-19T21:10:59.650Z,-7.01
2023-02-19T21:13:28.426Z,-7.00
2023-02-19T21:15:57.282Z,-6.99
2023-02-19T21:18:24.454Z,-6.97
2023-02-19T21:20:51.871Z,-6.96
2023-02-19T21:23:19.212Z,-7.01
2023-02-19T21:25:49.179Z,-6.91
2023-02-19T21:28:16.438Z,-6.95
2023-02-19T21:30:43.714Z,-6.97
2023-02-19T21:33:11.228Z,-6.99
2023-02-19T21:35:38.994Z,-6.97
2023-02-19T21:38:06.626Z,-7.01
2023-02-19T21:40:34.291Z,-7.00
2023-02-19T21:43:02.961Z,-6.95
2023-02-19T21:45:30.317Z,-6.94
2023-02-19T21:47:57.741Z,-7.00
2023-02-19T21:50:24.948Z,-6.91
2023-02-19T21:52:52.319Z,-6.87
2023-02-19T21:55:19.807Z,-6.84
2023-02-19T21:57:47.203Z,-6.82
2023-02-19T22:00:16.537Z,-6.83
2023-02-19T22:02:43.780Z,-6.84
2023-02-19T22:05:11.144Z,-6.84
2023-02-19T22:07:38.679Z,-6.83
2023-02-19T22:10:09.011Z,-6.81
2023-02-19T22:12:36.416Z,-6.77
2023-02-19T22:15:03.796Z,-6.81
2023-02-19T22:17:33.192Z,-6.77
2023-02-19T22:20:00.382Z,-6.74
2023-02-19T22:22:27.666Z,-6.71
2023-02-19T22:24:55.336Z,-6.70
2023-02-19T22:27:24.639Z,-6.70
2023-02-19T22:29:51.875Z,-6.75
2023-02-19T22:32:19.174Z,-6.76
2023-02-19T22:34:48.091Z,-6.79
2023-02-19T22:37:15.382Z,-6.79
2023-02-19T22:39:42.629Z,-6.75
2023-02-19T22:42:09.916Z,-6.74
2023-02-19T22:44:37.336Z,-6.71
2023-02-19T22:47:04.776Z,-6.70
2023-02-19T22:49:32.063Z,-6.72
2023-02-19T22:52:03.556Z,-6.72
2023-02-19T22:54:30.874Z,-6.77
2023-02-19T22:56:58.154Z,-6.81
2023-02-19T22:59:25.494Z,-6.83
2023-02-19T23:01:53.029Z,-6.80
2023-02-19T23:04:21.267Z,-6.81
2023-02-19T23:06:49.468Z,-6.80
2023-02-19T23:09:20.809Z,-6.78
2023-02-19T23:11:48.364Z,-6.75
2023-02-19T23:14:17.284Z,-6.74
2023-02-19T23:16:44.935Z,-6.72
2023-02-19T23:19:14.736Z,-6.73
2023-02-19T23:21:44.379Z,-6.76
2023-02-19T23:24:12.636Z,-6.71
2023-02-19T23:26:44.297Z,-6.68
2023-02-19T23:29:14.439Z,-6.67
2023-02-19T23:31:41.766Z,-6.68
2023-02-19T23:34:09.244Z,-6.69
2023-02-19T23:36:40.475Z,-6.71
2023-02-19T23:39:09.206Z,-6.74
2023-02-19T23:41:36.476Z,-6.75
2023-02-19T23:44:05.834Z,-6.76
2023-02-19T23:46:34.074Z,-6.76
2023-02-19T23:49:01.446Z,-6.75
2023-02-19T23:51:28.950Z,-6.79
2023-02-19T23:53:56.313Z,-6.76
2023-02-19T23:56:24.013Z,-6.77
2023-02-19T23:58:51.337Z,-6.74
